Time;durP1;ratioP1;P1;durP2;ratioP2;P2;SDS_P1;SDS_P2;PMS_P1;PMS_P2;Temp;Humidity;BMP_temperature;BMP_pressure;BME280_temperature;BME280_humidity;BME280_pressure;Samples;Min_cycle;Max_cycle;Signal;HPM_P1;HPM_P2
2022/03/18 00:02:10;;;;;;;18.00;16.20;;;6.10;99.90;;;;;;5013631;28;20222;-84
2022/03/18 00:04:38;;;;;;;18.58;15.90;;;6.10;99.90;;;;;;5013377;28;20215;-84
2022/03/18 00:07:07;;;;;;;22.60;16.77;;;6.10;99.90;;;;;;5013414;28;20238;-83
2022/03/18 00:09:35;;;;;;;21.98;14.18;;;6.10;99.90;;;;;;5013407;28;20294;-83
2022/03/18 00:12:04;;;;;;;17.30;15.57;;;6.10;99.90;;;;;;5012836;28;20263;-84
2022/03/18 00:14:34;;;;;;;17.02;15.25;;;6.00;99.90;;;;;;5013104;28;20209;-84
2022/03/18 00:17:02;;;;;;;16.75;15.05;;;6.00;99.90;;;;;;5013046;28;20290;-83
2022/03/18 00:19:31;;;;;;;20.35;15.05;;;6.00;99.90;;;;;;5013149;28;20243;-84
2022/03/18 00:22:01;;;;;;;20.17;15.85;;;6.00;99.90;;;;;;5012946;28;20215;-84
2022/03/18 00:24:31;;;;;;;18.98;15.77;;;5.90;99.90;;;;;;5013042;28;20245;-84
2022/03/18 00:27:00;;;;;;;17.05;15.05;;;5.90;99.90;;;;;;5013043;28;20230;-84
2022/03/18 00:29:28;;;;;;;16.95;15.15;;;5.90;99.90;;;;;;5012977;28;20210;-84
2022/03/18 00:31:58;;;;;;;17.50;15.38;;;5.80;99.90;;;;;;5012654;28;20227;-84
2022/03/18 00:34:27;;;;;;;23.23;17.25;;;5.80;99.90;;;;;;5012853;28;20213;-83
2022/03/18 00:36:55;;;;;;;22.27;14.90;;;5.80;99.90;;;;;;5012789;28;20225;-84
2022/03/18 00:39:23;;;;;;;20.75;15.57;;;5.80;99.90;;;;;;5013201;28;20234;-84
2022/03/18 00:41:52;;;;;;;19.13;17.00;;;5.80;99.90;;;;;;5012573;28;20222;-84
2022/03/18 00:44:20;;;;;;;25.30;16.30;;;5.80;99.90;;;;;;5012976;28;20286;-83
2022/03/18 00:46:49;;;;;;;19.42;17.08;;;5.80;99.90;;;;;;5012810;28;20211;-83
2022/03/18 00:52:06;;;;;;;16.05;14.45;;;5.80;99.90;;;;;;5012744;28;20277;-84
2022/03/18 00:54:36;;;;;;;22.25;16.45;;;5.80;99.90;;;;;;5012771;28;20219;-83
2022/03/18 00:57:05;;;;;;;18.52;15.05;;;5.80;99.90;;;;;;5012832;28;20227;-84
2022/03/18 00:59:33;;;;;;;16.30;13.93;;;5.80;99.90;;;;;;5012952;28;20274;-84
2022/03/18 01:02:02;;;;;;;16.10;14.40;;;5.80;99.90;;;;;;5012464;28;20254;-84
2022/03/18 01:04:32;;;;;;;16.67;14.68;;;5.80;99.90;;;;;;5012579;28;20210;-84
2022/03/18 01:07:00;;;;;;;24.05;15.43;;;5.80;99.90;;;;;;5012494;28;20242;-84
2022/03/18 01:09:29;;;;;;;20.35;14.32;;;5.80;99.90;;;;;;5013240;28;20290;-84
2022/03/18 01:11:57;;;;;;;18.70;14.52;;;5.80;99.90;;;;;;5012167;28;20270;-84
2022/03/18 01:14:26;;;;;;;17.48;15.38;;;5.80;99.90;;;;;;5012681;28;20299;-84
2022/03/18 01:16:54;;;;;;;21.52;15.73;;;5.80;99.90;;;;;;5012405;28;20238;-84
2022/03/18 01:19:22;;;;;;;15.43;13.80;;;5.80;99.90;;;;;;5012522;28;20305;-84
2022/03/18 01:21:52;;;;;;;26.33;16.23;;;5.80;99.90;;;;;;5012200;28;20223;-84
2022/03/18 01:24:20;;;;;;;16.20;14.40;;;5.80;99.90;;;;;;5012276;28;20207;-84
2022/03/18 01:26:49;;;;;;;15.55;14.05;;;5.90;99.90;;;;;;5012513;28;20242;-84
2022/03/18 01:29:17;;;;;;;18.63;14.15;;;5.80;99.90;;;;;;5013241;28;20230;-84
2022/03/18 01:31:45;;;;;;;14.98;13.32;;;5.80;99.90;;;;;;5016001;28;20319;-85
2022/03/18 01:34:13;;;;;;;19.05;15.63;;;5.80;99.90;;;;;;5016437;28;20311;-84
2022/03/18 01:36:42;;;;;;;17.02;14.70;;;5.80;99.90;;;;;;5016135;28;20233;-84
2022/03/18 01:39:12;;;;;;;19.55;14.27;;;5.80;99.90;;;;;;5016009;28;20207;-84
2022/03/18 01:41:41;;;;;;;17.73;14.15;;;5.80;99.90;;;;;;5015712;28;20259;-84
2022/03/18 01:44:10;;;;;;;20.45;14.80;;;5.80;99.90;;;;;;5015633;28;20396;-84
2022/03/18 01:46:39;;;;;;;14.95;13.48;;;5.80;99.90;;;;;;5015998;28;20210;-84
2022/03/18 01:49:08;;;;;;;16.23;14.20;;;5.80;99.90;;;;;;5016364;28;20207;-83
2022/03/18 01:51:36;;;;;;;14.90;13.43;;;5.80;99.90;;;;;;5015266;28;20301;-84
2022/03/18 01:56:52;;;;;;;15.98;13.82;;;5.80;99.90;;;;;;5015493;28;20241;-83
2022/03/18 01:59:20;;;;;;;16.30;14.70;;;5.80;99.90;;;;;;5016053;28;20253;-84
2022/03/18 02:01:50;;;;;;;18.95;14.82;;;5.80;99.90;;;;;;5015270;28;20247;-84
2022/03/18 02:04:19;;;;;;;15.80;14.13;;;5.90;99.90;;;;;;5015647;28;20234;-84
2022/03/18 02:06:48;;;;;;;17.70;15.27;;;5.80;99.90;;;;;;5015589;28;20231;-84
2022/03/18 02:09:17;;;;;;;21.38;15.18;;;5.80;99.90;;;;;;5015157;28;20234;-84
2022/03/18 02:11:45;;;;;;;17.60;15.73;;;5.90;99.90;;;;;;5015431;28;20298;-84
2022/03/18 02:14:15;;;;;;;15.80;14.18;;;5.90;99.90;;;;;;5015711;28;20226;-84
2022/03/18 02:16:43;;;;;;;16.58;14.90;;;5.80;99.90;;;;;;5015661;28;20242;-84
2022/03/18 02:19:12;;;;;;;16.85;15.15;;;5.90;99.90;;;;;;5014889;28;20203;-84
2022/03/18 02:21:41;;;;;;;17.00;15.32;;;5.80;99.90;;;;;;5014734;28;20261;-83
2022/03/18 02:24:11;;;;;;;20.85;15.25;;;5.80;99.90;;;;;;5015331;28;20210;-83
2022/03/18 02:26:39;;;;;;;17.55;15.77;;;5.70;99.90;;;;;;5015276;28;20241;-84
2022/03/18 02:29:08;;;;;;;18.63;16.70;;;5.70;99.90;;;;;;5015137;28;20207;-84
2022/03/18 02:31:37;;;;;;;22.58;15.45;;;5.70;99.90;;;;;;5014874;28;20317;-84
2022/03/18 02:34:05;;;;;;;15.18;13.68;;;5.60;99.90;;;;;;5014938;28;20251;-84
2022/03/18 02:36:33;;;;;;;21.70;16.42;;;5.60;99.90;;;;;;5015330;28;20215;-84
2022/03/18 02:39:02;;;;;;;22.23;18.52;;;5.60;99.90;;;;;;5015449;28;20322;-84
2022/03/18 02:41:32;;;;;;;22.25;17.00;;;5.50;99.90;;;;;;5014759;28;20287;-84
2022/03/18 02:44:00;;;;;;;17.08;15.23;;;5.50;99.90;;;;;;5014974;28;20207;-84
2022/03/18 02:46:32;;;;;;;18.83;16.55;;;5.40;99.90;;;;;;5014808;28;20257;-84
2022/03/18 02:49:01;;;;;;;25.92;16.98;;;5.40;99.90;;;;;;5014995;28;20299;-85
2022/03/18 02:51:30;;;;;;;18.80;16.85;;;5.30;99.90;;;;;;5014333;28;20258;-83
2022/03/18 02:53:58;;;;;;;18.63;16.67;;;5.30;99.90;;;;;;5014528;28;20261;-84
2022/03/18 02:56:26;;;;;;;17.33;15.55;;;5.30;99.90;;;;;;5014805;28;20246;-83
2022/03/18 02:58:56;;;;;;;18.33;16.40;;;5.20;99.90;;;;;;5014806;28;20294;-84
2022/03/18 03:01:25;;;;;;;18.48;16.58;;;5.20;99.90;;;;;;5014288;28;20290;-84
2022/03/18 03:03:54;;;;;;;19.10;16.52;;;5.20;99.90;;;;;;5014652;28;20211;-84
2022/03/18 03:09:08;;;;;;;21.35;17.38;;;5.20;99.90;;;;;;5014662;28;20241;-84
2022/03/18 03:11:36;;;;;;;18.67;16.50;;;5.20;99.90;;;;;;5014226;28;20254;-83
2022/03/18 03:14:06;;;;;;;18.98;17.00;;;5.20;99.90;;;;;;5014153;28;20257;-84
2022/03/18 03:16:34;;;;;;;22.17;15.38;;;5.20;99.90;;;;;;5014100;28;20235;-84
2022/03/18 03:19:03;;;;;;;25.23;17.83;;;5.10;99.90;;;;;;5014164;28;20267;-84
2022/03/18 03:21:31;;;;;;;18.30;15.60;;;5.10;99.90;;;;;;5014428;28;20290;-84
2022/03/18 03:24:00;;;;;;;19.08;17.00;;;5.20;99.90;;;;;;5013810;28;20258;-84
2022/03/18 03:26:29;;;;;;;16.00;14.57;;;5.20;99.90;;;;;;5013883;28;20215;-84
2022/03/18 03:28:57;;;;;;;17.85;15.27;;;5.20;99.90;;;;;;5014189;28;20222;-84
2022/03/18 03:31:27;;;;;;;17.33;15.63;;;5.10;99.90;;;;;;5013724;28;20253;-84
2022/03/18 03:33:55;;;;;;;22.25;17.13;;;5.10;99.90;;;;;;5014093;28;20227;-83
2022/03/18 03:36:24;;;;;;;22.02;18.88;;;5.20;99.90;;;;;;5014015;28;20207;-84
2022/03/18 03:38:52;;;;;;;19.40;16.85;;;5.10;99.90;;;;;;5013724;28;20207;-84
2022/03/18 03:41:22;;;;;;;17.90;15.50;;;5.20;99.90;;;;;;5013254;28;20261;-84
2022/03/18 03:43:50;;;;;;;20.90;16.77;;;5.20;99.90;;;;;;5014288;28;20207;-84
2022/03/18 03:46:18;;;;;;;31.85;17.80;;;5.20;99.90;;;;;;5013755;28;20242;-84
2022/03/18 03:48:48;;;;;;;20.48;17.48;;;5.20;99.90;;;;;;5013872;28;20280;-83
2022/03/18 03:51:17;;;;;;;21.00;17.08;;;5.20;99.90;;;;;;5012976;28;20287;-84
2022/03/18 03:53:45;;;;;;;21.88;17.48;;;5.20;99.90;;;;;;5012483;28;20257;-84
2022/03/18 03:56:13;;;;;;;21.73;17.45;;;5.20;99.90;;;;;;5013439;28;20242;-84
2022/03/18 03:58:41;;;;;;;22.40;17.42;;;5.30;99.90;;;;;;5013433;28;20231;-84
2022/03/18 04:01:10;;;;;;;22.98;18.35;;;5.20;99.90;;;;;;5012991;28;20253;-84
2022/03/18 04:03:38;;;;;;;29.52;17.20;;;5.30;99.90;;;;;;5013066;28;20207;-84
2022/03/18 04:06:08;;;;;;;22.05;16.63;;;5.30;99.90;;;;;;5013245;28;20207;-84
2022/03/18 04:08:37;;;;;;;22.77;18.42;;;5.30;99.90;;;;;;5013534;28;20206;-84
2022/03/18 04:11:05;;;;;;;19.10;16.35;;;5.30;99.90;;;;;;5013454;28;20226;-84
2022/03/18 04:13:33;;;;;;;18.85;16.83;;;5.30;99.90;;;;;;5012972;28;20215;-84
2022/03/18 04:16:02;;;;;;;20.10;16.23;;;5.30;99.90;;;;;;5013519;28;20230;-84
2022/03/18 04:18:30;;;;;;;24.70;18.25;;;5.30;99.90;;;;;;5013252;28;20211;-84
2022/03/18 04:20:59;;;;;;;21.95;16.55;;;5.30;99.90;;;;;;5012773;28;20260;-84
2022/03/18 04:23:29;;;;;;;17.40;15.27;;;5.30;99.90;;;;;;5013106;28;20238;-83
2022/03/18 04:25:57;;;;;;;17.70;15.95;;;5.30;99.90;;;;;;5013133;28;20246;-84
2022/03/18 04:28:25;;;;;;;24.10;17.80;;;5.30;99.90;;;;;;5013084;28;20238;-83
2022/03/18 04:30:54;;;;;;;17.63;15.52;;;5.30;99.90;;;;;;5012846;28;20292;-83
2022/03/18 04:33:22;;;;;;;25.02;17.60;;;5.30;99.90;;;;;;5013385;28;20206;-84
2022/03/18 04:35:51;;;;;;;19.45;16.48;;;5.30;99.90;;;;;;5012773;28;20211;-84
2022/03/18 04:38:19;;;;;;;21.35;16.88;;;5.30;99.90;;;;;;5013260;28;20226;-84
2022/03/18 04:40:49;;;;;;;18.80;16.88;;;5.30;99.90;;;;;;5014681;28;20254;-84
2022/03/18 04:43:17;;;;;;;20.60;17.60;;;5.30;99.90;;;;;;5012973;28;20203;-84
2022/03/18 04:45:45;;;;;;;19.83;16.50;;;5.30;99.90;;;;;;5012695;28;20203;-84
2022/03/18 04:48:14;;;;;;;18.58;16.67;;;5.30;99.90;;;;;;5012413;28;20298;-83
2022/03/18 04:50:42;;;;;;;19.52;17.40;;;5.30;99.90;;;;;;5012461;28;20251;-83
2022/03/18 04:53:10;;;;;;;21.13;17.40;;;5.20;99.90;;;;;;5012597;28;20238;-83
2022/03/18 04:55:38;;;;;;;25.35;19.15;;;5.20;99.90;;;;;;5012350;28;20309;-84
2022/03/18 04:58:08;;;;;;;24.65;18.50;;;5.20;99.90;;;;;;5012933;28;20334;-84
2022/03/18 05:00:36;;;;;;;21.60;17.70;;;5.20;99.90;;;;;;5012489;28;20258;-84
2022/03/18 05:03:05;;;;;;;25.15;19.13;;;5.20;99.90;;;;;;5012822;28;20261;-84
2022/03/18 05:05:33;;;;;;;22.90;19.10;;;5.20;99.90;;;;;;5016747;28;20203;-84
2022/03/18 05:08:02;;;;;;;23.25;19.70;;;5.20;99.90;;;;;;5016679;28;20202;-83
2022/03/18 05:10:30;;;;;;;22.30;18.35;;;5.20;99.90;;;;;;5016388;28;20313;-84
2022/03/18 05:12:59;;;;;;;20.67;18.25;;;5.20;99.90;;;;;;5016479;28;20245;-83
2022/03/18 05:15:31;;;;;;;19.92;17.73;;;5.10;99.90;;;;;;5016147;28;20313;-84
2022/03/18 05:17:59;;;;;;;22.95;20.20;;;5.10;99.90;;;;;;5016805;28;20269;-83
2022/03/18 05:20:29;;;;;;;19.65;17.73;;;5.10;99.90;;;;;;5016400;28;20250;-83
2022/03/18 05:22:57;;;;;;;24.13;18.92;;;5.10;99.90;;;;;;5016402;28;20234;-84
2022/03/18 05:25:25;;;;;;;21.27;18.20;;;5.10;99.90;;;;;;5016321;28;20241;-83
2022/03/18 05:27:53;;;;;;;25.17;19.52;;;5.10;99.90;;;;;;5016215;28;20299;-84
2022/03/18 05:30:21;;;;;;;25.60;20.23;;;5.10;99.90;;;;;;5016143;28;20235;-84
2022/03/18 05:32:51;;;;;;;19.95;17.30;;;5.10;99.90;;;;;;5015893;28;20230;-84
2022/03/18 05:35:20;;;;;;;22.70;18.67;;;5.10;99.90;;;;;;5015817;28;20227;-84
2022/03/18 05:37:48;;;;;;;19.05;15.75;;;5.10;99.90;;;;;;5015945;28;20294;-83
2022/03/18 05:40:18;;;;;;;21.98;18.25;;;5.10;99.90;;;;;;5015721;28;20257;-84
2022/03/18 05:42:46;;;;;;;24.88;19.55;;;5.10;99.90;;;;;;5016431;28;20274;-83
2022/03/18 05:45:16;;;;;;;25.58;20.80;;;5.10;99.90;;;;;;5016050;28;20295;-84
2022/03/18 05:47:44;;;;;;;19.23;16.02;;;5.20;99.90;;;;;;5015742;28;20207;-83
2022/03/18 05:50:15;;;;;;;26.05;19.13;;;5.20;99.90;;;;;;5015609;28;20207;-84
2022/03/18 05:52:45;;;;;;;30.52;18.67;;;5.20;99.90;;;;;;5015579;28;20215;-83
2022/03/18 05:55:13;;;;;;;24.15;18.67;;;5.20;99.90;;;;;;5015731;28;20220;-83
2022/03/18 05:57:40;;;;;;;18.80;16.88;;;5.20;99.90;;;;;;5016081;28;20203;-83
2022/03/18 06:00:10;;;;;;;25.25;18.08;;;5.30;99.90;;;;;;5015148;28;20202;-83
2022/03/18 06:02:38;;;;;;;22.65;17.25;;;5.30;99.90;;;;;;5015466;28;20211;-83
2022/03/18 06:05:07;;;;;;;24.02;19.13;;;5.30;99.90;;;;;;5015311;28;20219;-83
2022/03/18 06:07:38;;;;;;;23.30;18.50;;;5.30;99.90;;;;;;5015371;28;20237;-83
2022/03/18 06:12:52;;;;;;;23.67;19.73;;;5.40;99.90;;;;;;5015346;28;20297;-83
2022/03/18 06:15:21;;;;;;;24.80;19.73;;;5.40;99.90;;;;;;5014568;28;20312;-83
2022/03/18 06:17:49;;;;;;;21.90;19.63;;;5.40;99.90;;;;;;5015139;28;20238;-83
2022/03/18 06:20:18;;;;;;;20.90;18.02;;;5.40;99.90;;;;;;5015173;28;20283;-84
2022/03/18 06:22:47;;;;;;;29.65;17.63;;;5.40;99.90;;;;;;5015465;28;20294;-83
2022/03/18 06:25:16;;;;;;;23.38;18.42;;;5.50;99.90;;;;;;5015003;28;20211;-83
2022/03/18 06:27:44;;;;;;;19.35;17.30;;;5.60;99.90;;;;;;5015183;28;20242;-83
2022/03/18 06:30:13;;;;;;;22.33;19.25;;;5.60;99.90;;;;;;5015103;28;20290;-84
2022/03/18 06:32:42;;;;;;;20.67;17.67;;;5.70;99.90;;;;;;5014909;28;20257;-83
2022/03/18 06:35:10;;;;;;;21.02;18.30;;;5.70;99.90;;;;;;5015105;28;20219;-83
2022/03/18 06:37:43;;;;;;;29.05;20.38;;;5.90;99.90;;;;;;5014962;28;20195;-84
2022/03/18 06:40:14;;;;;;;28.58;18.40;;;5.90;99.90;;;;;;5014840;28;20261;-83
2022/03/18 06:42:42;;;;;;;18.30;16.38;;;5.90;99.90;;;;;;5014831;28;20270;-83
2022/03/18 06:45:11;;;;;;;21.17;16.75;;;5.90;99.90;;;;;;5014683;28;20203;-84
2022/03/18 06:47:40;;;;;;;35.95;18.58;;;6.00;99.90;;;;;;5015331;28;20257;-83
2022/03/18 06:50:10;;;;;;;19.27;17.30;;;6.00;99.90;;;;;;5014575;28;20223;-83
2022/03/18 06:52:38;;;;;;;18.73;16.77;;;6.10;99.90;;;;;;5014336;28;20211;-83
2022/03/18 06:55:08;;;;;;;19.60;17.50;;;6.10;99.90;;;;;;5014068;28;20254;-83
2022/03/18 06:57:37;;;;;;;21.02;17.63;;;6.20;99.90;;;;;;5014463;28;20203;-83
2022/03/18 07:00:07;;;;;;;23.60;19.58;;;6.20;99.90;;;;;;5014399;28;20250;-84
2022/03/18 07:02:35;;;;;;;26.23;19.25;;;6.10;99.90;;;;;;5014232;28;20238;-84
2022/03/18 07:05:04;;;;;;;22.42;17.95;;;6.10;99.90;;;;;;5014415;28;20253;-83
2022/03/18 07:07:33;;;;;;;20.98;17.48;;;6.10;99.90;;;;;;5014341;28;20230;-83
2022/03/18 07:10:01;;;;;;;22.05;19.55;;;6.00;99.90;;;;;;5014313;28;20298;-83
2022/03/18 07:12:29;;;;;;;20.60;18.02;;;6.10;99.90;;;;;;5014141;28;20276;-83
2022/03/18 07:14:59;;;;;;;24.20;19.05;;;6.20;99.90;;;;;;5013993;28;20222;-83
2022/03/18 07:20:13;;;;;;;18.95;16.88;;;6.20;99.90;;;;;;5014104;28;20203;-84
2022/03/18 07:22:42;;;;;;;28.02;18.83;;;6.30;99.90;;;;;;5013652;28;20289;-84
2022/03/18 07:25:10;;;;;;;24.10;18.30;;;6.40;99.90;;;;;;5013958;28;20298;-82
2022/03/18 07:27:39;;;;;;;24.13;18.52;;;6.50;99.90;;;;;;5012833;28;20291;-83
2022/03/18 07:30:10;;;;;;;21.27;18.55;;;6.60;99.90;;;;;;5013944;28;20232;-83
2022/03/18 07:32:38;;;;;;;18.25;16.38;;;6.60;99.90;;;;;;5014008;28;20298;-83
2022/03/18 07:35:07;;;;;;;19.98;17.45;;;6.70;99.90;;;;;;5013684;28;20238;-83
2022/03/18 07:37:36;;;;;;;20.75;18.00;;;6.60;99.90;;;;;;5013615;28;20199;-84
2022/03/18 07:40:05;;;;;;;19.83;16.95;;;6.80;99.90;;;;;;5014165;28;20226;-85
2022/03/18 07:42:41;;;;;;;19.33;17.13;;;6.80;99.90;;;;;;5013570;28;20238;-84
2022/03/18 07:45:12;;;;;;;21.23;18.20;;;7.00;99.90;;;;;;5014033;28;20246;-84
2022/03/18 07:47:41;;;;;;;24.55;17.80;;;7.10;99.90;;;;;;5013501;28;20211;-84
2022/03/18 07:50:10;;;;;;;22.88;17.60;;;7.20;99.90;;;;;;5013642;28;20246;-83
2022/03/18 07:52:38;;;;;;;23.63;18.05;;;7.10;99.90;;;;;;5013220;28;20211;-84
2022/03/18 07:55:07;;;;;;;19.85;16.33;;;7.10;99.90;;;;;;5013897;28;20211;-83
2022/03/18 07:57:35;;;;;;;20.52;17.83;;;7.30;99.90;;;;;;5013436;28;20231;-83
2022/03/18 08:00:13;;;;;;;19.30;17.30;;;7.40;99.90;;;;;;5013211;28;20265;-82
2022/03/18 08:02:41;;;;;;;19.40;17.15;;;7.60;99.90;;;;;;5013221;28;20207;-83
2022/03/18 08:05:10;;;;;;;20.50;17.02;;;7.70;99.90;;;;;;5013642;28;20298;-82
2022/03/18 08:07:39;;;;;;;23.88;18.23;;;7.80;99.90;;;;;;5013480;28;20250;-82
2022/03/18 08:10:10;;;;;;;21.02;16.77;;;7.80;99.90;;;;;;5013261;28;20231;-84
2022/03/18 08:12:40;;;;;;;19.35;17.10;;;8.00;99.90;;;;;;5013292;28;20215;-84
2022/03/18 08:15:13;;;;;;;20.98;17.65;;;8.20;99.90;;;;;;5013334;28;20230;-85
2022/03/18 08:17:43;;;;;;;20.88;18.67;;;8.40;99.90;;;;;;5012885;28;20234;-84
2022/03/18 08:20:14;;;;;;;22.75;18.90;;;8.60;99.90;;;;;;5013150;28;20238;-84
2022/03/18 08:22:43;;;;;;;19.38;16.85;;;8.80;99.90;;;;;;5013121;28;20219;-84
2022/03/18 08:25:12;;;;;;;24.52;18.65;;;8.90;99.90;;;;;;5012921;28;20238;-83
2022/03/18 08:27:40;;;;;;;17.90;16.00;;;9.10;99.90;;;;;;5012915;28;20206;-83
2022/03/18 08:30:11;;;;;;;22.60;18.45;;;9.20;99.90;;;;;;5012448;28;20253;-83
2022/03/18 08:32:41;;;;;;;26.65;18.95;;;9.20;99.90;;;;;;5013263;28;20294;-83
2022/03/18 08:35:10;;;;;;;20.92;17.25;;;9.20;99.90;;;;;;5013788;28;20211;-82
2022/03/18 08:37:57;;;;;;;17.92;15.93;;;9.20;99.90;;;;;;5013126;28;20281;-84
2022/03/18 08:40:26;;;;;;;19.60;16.67;;;9.30;99.90;;;;;;5012536;28;20269;-83
2022/03/18 08:42:56;;;;;;;18.08;15.93;;;9.40;99.90;;;;;;5012628;28;20238;-84
2022/03/18 08:45:25;;;;;;;17.67;15.80;;;9.30;99.90;;;;;;5012819;28;20290;-84
2022/03/18 08:47:55;;;;;;;18.20;16.30;;;9.50;99.90;;;;;;5012748;28;20207;-83
2022/03/18 08:50:24;;;;;;;17.75;16.00;;;9.50;99.90;;;;;;5012296;28;20255;-83
2022/03/18 08:52:54;;;;;;;18.23;16.33;;;9.70;99.90;;;;;;5012809;28;20227;-83
2022/03/18 08:55:23;;;;;;;17.67;15.80;;;9.90;99.90;;;;;;5016760;28;20211;-84
2022/03/18 08:57:51;;;;;;;19.35;16.25;;;10.00;99.90;;;;;;5013193;28;20290;-83
2022/03/18 09:00:20;;;;;;;18.13;16.30;;;10.20;99.90;;;;;;5013042;28;20299;-83
2022/03/18 09:02:49;;;;;;;18.48;16.63;;;10.50;99.90;;;;;;5012494;28;20211;-83
2022/03/18 09:05:19;;;;;;;20.73;16.35;;;10.70;99.90;;;;;;5012046;28;20215;-83
2022/03/18 09:07:48;;;;;;;18.85;16.98;;;10.90;99.90;;;;;;5012092;28;20199;-84
2022/03/18 09:10:16;;;;;;;18.85;16.88;;;11.00;99.90;;;;;;5012421;28;20234;-83
2022/03/18 09:12:45;;;;;;;28.80;17.08;;;10.90;99.90;;;;;;5012382;28;20215;-85
2022/03/18 09:15:14;;;;;;;17.67;15.85;;;10.70;99.90;;;;;;5012293;28;20230;-82
2022/03/18 09:17:42;;;;;;;17.98;16.17;;;10.80;99.90;;;;;;5012186;28;20269;-82
2022/03/18 09:20:11;;;;;;;19.13;17.23;;;11.00;99.90;;;;;;5012086;28;20297;-81
2022/03/18 09:22:41;;;;;;;22.63;17.48;;;10.90;99.90;;;;;;5012198;28;20298;-83
2022/03/18 09:25:10;;;;;;;19.08;17.10;;;10.90;99.90;;;;;;5012357;28;20245;-82
2022/03/18 09:27:39;;;;;;;17.20;15.45;;;11.20;99.90;;;;;;5012637;28;20281;-83
2022/03/18 09:30:10;;;;;;;22.08;19.55;;;11.10;99.90;;;;;;5012161;28;20213;-82
2022/03/18 09:32:40;;;;;;;22.50;17.08;;;11.10;99.90;;;;;;5012188;28;20211;-82
2022/03/18 09:35:10;;;;;;;23.67;16.98;;;11.30;99.90;;;;;;5012630;28;20215;-83
2022/03/18 09:37:38;;;;;;;24.92;17.38;;;11.50;99.90;;;;;;5011935;28;20314;-84
2022/03/18 09:40:11;;;;;;;22.02;18.27;;;11.60;99.90;;;;;;5012375;28;20219;-84
2022/03/18 09:43:01;;;;;;;20.50;18.33;;;11.70;99.90;;;;;;5012266;28;20203;-83
2022/03/18 09:45:31;;;;;;;25.35;19.52;;;11.80;99.90;;;;;;5012170;28;20274;-83
2022/03/18 09:48:01;;;;;;;21.77;18.80;;;11.70;99.90;;;;;;5012018;28;20215;-83
2022/03/18 09:50:30;;;;;;;20.98;18.60;;;11.90;99.90;;;;;;5012460;28;20231;-82
2022/03/18 09:52:59;;;;;;;20.33;18.15;;;12.10;99.90;;;;;;5015757;28;20246;-82
2022/03/18 09:55:30;;;;;;;18.95;16.98;;;12.20;99.90;;;;;;5015496;28;20239;-81
2022/03/18 09:57:59;;;;;;;23.27;16.90;;;12.20;99.90;;;;;;5015509;28;20250;-83
2022/03/18 10:00:29;;;;;;;21.17;18.42;;;11.90;99.90;;;;;;5015378;28;20233;-83
2022/03/18 10:03:11;;;;;;;25.35;19.33;;;12.00;99.90;;;;;;5015445;28;20223;-83
2022/03/18 10:05:49;;;;;;;20.40;17.63;;;12.30;99.90;;;;;;5015934;28;20211;-86
2022/03/18 10:08:21;;;;;;;21.73;18.10;;;12.50;99.90;;;;;;5015799;28;20210;-84
2022/03/18 10:10:51;;;;;;;21.10;18.55;;;12.60;99.90;;;;;;5015166;28;20239;-85
2022/03/18 10:13:20;;;;;;;21.08;16.90;;;12.70;99.90;;;;;;5015224;28;20245;-83
2022/03/18 10:15:48;;;;;;;18.30;16.55;;;12.60;99.90;;;;;;5027960;28;20198;-75
2022/03/18 10:18:17;;;;;;;19.25;16.90;;;12.80;99.90;;;;;;5035383;28;20219;-75
2022/03/18 10:20:47;;;;;;;19.70;17.77;;;13.20;99.90;;;;;;5035805;28;20256;-75
2022/03/18 10:23:24;;;;;;;20.15;17.13;;;13.40;99.90;;;;;;5035656;28;20294;-74
2022/03/18 10:25:55;;;;;;;20.20;17.02;;;13.50;99.90;;;;;;5035950;28;20229;-86
2022/03/18 10:28:41;;;;;;;24.80;18.08;;;13.80;99.90;;;;;;5035495;28;20289;-85
2022/03/18 10:31:14;;;;;;;18.38;16.55;;;13.80;99.90;;;;;;5034403;28;20234;-74
2022/03/18 10:39:31;;;;;;;17.63;15.93;;;14.40;99.90;;;;;;5035549;28;20233;-74
2022/03/18 10:42:04;;;;;;;22.33;17.95;;;14.40;99.90;;;;;;5035275;28;20230;-75
2022/03/18 10:44:48;;;;;;;19.17;17.17;;;14.30;99.90;;;;;;5035102;28;20294;-76
2022/03/18 10:47:26;;;;;;;18.65;16.27;;;14.10;99.90;;;;;;5034788;28;20207;-76
2022/03/18 10:50:13;;;;;;;16.92;15.18;;;14.10;99.90;;;;;;5035575;28;20222;-77
2022/03/18 10:53:01;;;;;;;19.52;16.27;;;14.20;99.90;;;;;;5035095;28;20305;-76
2022/03/18 10:55:31;;;;;;;17.08;15.27;;;14.50;99.90;;;;;;5035239;28;20206;-76
2022/03/18 10:58:03;;;;;;;17.92;16.13;;;14.80;99.90;;;;;;5034438;28;20246;-77
2022/03/18 11:00:32;;;;;;;18.85;16.30;;;15.40;99.90;;;;;;5034961;28;20242;-77
2022/03/18 11:03:02;;;;;;;17.55;15.85;;;15.60;99.90;;;;;;5034759;28;20294;-76
2022/03/18 11:05:33;;;;;;;17.38;15.60;;;15.70;99.90;;;;;;5034504;28;20396;-84
2022/03/18 11:08:02;;;;;;;20.13;14.95;;;15.70;99.90;;;;;;5035484;28;20186;-85
2022/03/18 11:13:18;;;;;;;18.75;16.75;;;15.10;99.90;;;;;;5034563;28;20234;-84
2022/03/18 11:15:47;;;;;;;16.45;14.85;;;14.60;99.90;;;;;;5039903;28;20198;-85
2022/03/18 11:18:16;;;;;;;19.05;16.90;;;14.50;99.90;;;;;;5044316;28;20257;-86
2022/03/18 11:20:45;;;;;;;16.58;14.82;;;14.50;99.90;;;;;;5034776;28;20287;-83
2022/03/18 11:23:22;;;;;;;18.75;16.75;;;14.70;99.90;;;;;;5033844;28;20229;-86
2022/03/18 11:26:00;;;;;;;25.63;15.32;;;14.80;99.90;;;;;;5034733;28;20225;-84
2022/03/18 11:28:31;;;;;;;18.95;16.80;;;15.00;99.90;;;;;;5034696;28;20190;-82
2022/03/18 11:31:04;;;;;;;16.73;14.55;;;15.20;99.80;;;;;;5034738;28;20301;-82
2022/03/18 11:33:33;;;;;;;16.80;15.20;;;15.10;98.10;;;;;;5034898;28;20190;-82
2022/03/18 11:36:08;;;;;;;19.15;17.25;;;15.30;98.80;;;;;;5020705;28;20195;-83
2022/03/18 11:39:02;;;;;;;17.38;15.63;;;15.50;98.70;;;;;;5025625;28;20238;-82
2022/03/18 11:41:50;;;;;;;17.30;15.63;;;15.70;97.90;;;;;;5034048;28;20253;-82
2022/03/18 11:44:40;;;;;;;18.00;16.13;;;16.30;98.20;;;;;;5033955;28;20282;-82
2022/03/18 11:47:38;;;;;;;17.08;15.30;;;16.60;96.20;;;;;;5040922;28;20285;-82
2022/03/18 11:50:41;;;;;;;17.90;14.60;;;16.70;93.40;;;;;;5053913;28;20217;-83
2022/03/18 11:53:14;;;;;;;17.58;15.85;;;16.60;93.70;;;;;;5033361;28;20210;-83
2022/03/18 11:55:46;;;;;;;21.52;16.75;;;16.60;94.00;;;;;;5033841;28;20257;-82
2022/03/18 11:58:30;;;;;;;19.30;17.25;;;16.50;93.70;;;;;;5034104;28;20308;-82
2022/03/18 12:00:59;;;;;;;17.35;15.55;;;16.60;94.20;;;;;;5034430;28;20290;-82
2022/03/18 12:03:37;;;;;;;30.95;17.50;;;16.80;95.10;;;;;;5034302;28;20224;-82
2022/03/18 12:06:07;;;;;;;18.80;17.05;;;16.70;94.30;;;;;;5034093;28;20206;-82
2022/03/18 12:09:00;;;;;;;20.00;17.58;;;16.60;93.70;;;;;;5033917;28;20186;-82
2022/03/18 12:11:37;;;;;;;19.77;17.88;;;16.30;93.30;;;;;;5033756;28;20237;-82
2022/03/18 12:14:10;;;;;;;22.27;18.38;;;16.10;94.00;;;;;;5033844;28;20321;-82
2022/03/18 12:16:40;;;;;;;21.15;16.63;;;15.90;94.20;;;;;;5033622;28;20224;-82
2022/03/18 12:19:28;;;;;;;21.38;17.30;;;16.10;94.60;;;;;;5033488;28;20222;-82
2022/03/18 12:22:01;;;;;;;21.58;17.20;;;16.40;93.80;;;;;;5033629;28;20261;-82
2022/03/18 12:24:30;;;;;;;19.55;17.55;;;16.60;93.70;;;;;;5034069;28;20207;-81
2022/03/18 12:27:00;;;;;;;18.58;16.63;;;16.60;93.00;;;;;;5033457;28;20261;-82
2022/03/18 12:29:29;;;;;;;18.58;16.63;;;16.60;93.50;;;;;;5033549;28;20300;-82
2022/03/18 12:32:09;;;;;;;23.83;17.73;;;16.90;92.40;;;;;;5033460;28;20329;-82
2022/03/18 12:34:47;;;;;;;17.65;15.07;;;17.10;91.20;;;;;;5033452;28;20202;-82
2022/03/18 12:37:20;;;;;;;17.77;15.90;;;17.10;90.40;;;;;;5032990;28;20237;-82
2022/03/18 12:40:00;;;;;;;24.08;16.23;;;17.20;90.00;;;;;;5033708;28;20246;-82
2022/03/18 12:42:29;;;;;;;16.05;14.50;;;17.30;87.60;;;;;;5033389;28;20326;-82
2022/03/18 12:44:59;;;;;;;16.65;14.85;;;17.60;89.10;;;;;;5033289;28;20302;-82
2022/03/18 12:47:31;;;;;;;17.13;15.27;;;17.50;87.50;;;;;;5033460;28;20207;-82
2022/03/18 12:50:00;;;;;;;15.88;14.30;;;17.70;86.30;;;;;;5033158;28;20218;-82
2022/03/18 12:52:28;;;;;;;15.65;14.10;;;17.60;84.70;;;;;;5033037;28;20253;-82
2022/03/18 12:55:09;;;;;;;16.70;13.63;;;17.30;85.20;;;;;;5033143;28;20229;-82
2022/03/18 12:57:41;;;;;;;14.05;12.77;;;17.20;84.10;;;;;;5032847;28;20214;-82
2022/03/18 13:00:13;;;;;;;15.98;13.00;;;17.00;83.30;;;;;;5033486;28;20221;-81
2022/03/18 13:03:03;;;;;;;14.90;13.38;;;17.10;83.50;;;;;;5032686;28;20286;-83
2022/03/18 13:05:31;;;;;;;15.07;13.52;;;17.40;83.30;;;;;;5036303;28;20290;-94
2022/03/18 13:08:07;;;;;;;14.60;13.10;;;17.80;79.20;;;;;;5033211;28;20195;-83
2022/03/18 13:10:35;;;;;;;16.27;14.57;;;17.60;77.00;;;;;;5026843;28;20261;-82
2022/03/18 13:13:09;;;;;;;17.30;14.40;;;17.30;76.80;;;;;;5013246;28;20207;-83